sensor_id;sensor_type;location;lat;lon;timestamp;temperature;humidity
23991;DHT22;12205;50.600;4.608;2023-01-04T00:02:21;8.70;99.90
23991;DHT22;12205;50.600;4.608;2023-01-04T00:04:50;8.80;99.90
23991;DHT22;12205;50.600;4.608;2023-01-04T00:07:17;8.70;99.90
23991;DHT22;12205;50.600;4.608;2023-01-04T00:09:44;8.70;99.90
23991;DHT22;12205;50.600;4.608;2023-01-04T00:12:12;8.70;99.90
23991;DHT22;12205;50.600;4.608;2023-01-04T00:14:39;8.70;99.90
23991;DHT22;12205;50.600;4.608;2023-01-04T00:17:06;8.70;99.90
23991;DHT22;12205;50.600;4.608;2023-01-04T00:19:33;8.70;99.90
23991;DHT22;12205;50.600;4.608;2023-01-04T00:22:02;8.70;99.90
23991;DHT22;12205;50.600;4.608;2023-01-04T00:24:29;8.70;99.90
23991;DHT22;12205;50.600;4.608;2023-01-04T00:26:56;8.60;99.90
23991;DHT22;12205;50.600;4.608;2023-01-04T00:29:23;8.60;99.90
23991;DHT22;12205;50.600;4.608;2023-01-04T00:31:51;8.60;99.90
23991;DHT22;12205;50.600;4.608;2023-01-04T00:34:18;8.70;99.90
23991;DHT22;12205;50.600;4.608;2023-01-04T00:36:46;8.60;99.90
23991;DHT22;12205;50.600;4.608;2023-01-04T00:39:15;8.70;99.90
23991;DHT22;12205;50.600;4.608;2023-01-04T00:41:44;8.70;99.90
23991;DHT22;12205;50.600;4.608;2023-01-04T00:44:13;8.70;99.90
23991;DHT22;12205;50.600;4.608;2023-01-04T00:46:42;8.70;99.90
23991;DHT22;12205;50.600;4.608;2023-01-04T00:49:10;8.70;99.90
23991;DHT22;12205;50.600;4.608;2023-01-04T00:51:39;8.70;99.90
23991;DHT22;12205;50.600;4.608;2023-01-04T00:54:11;8.70;99.90
23991;DHT22;12205;50.600;4.608;2023-01-04T00:56:41;8.70;99.90
23991;DHT22;12205;50.600;4.608;2023-01-04T00:59:11;8.70;99.90
23991;DHT22;12205;50.600;4.608;2023-01-04T01:01:40;8.70;99.90
23991;DHT22;12205;50.600;4.608;2023-01-04T01:04:11;8.80;99.90
23991;DHT22;12205;50.600;4.608;2023-01-04T01:06:39;8.80;99.90
23991;DHT22;12205;50.600;4.608;2023-01-04T01:09:07;8.80;99.90
23991;DHT22;12205;50.600;4.608;2023-01-04T01:11:35;8.80;99.90
23991;DHT22;12205;50.600;4.608;2023-01-04T01:14:05;8.80;99.90
23991;DHT22;12205;50.600;4.608;2023-01-04T01:16:33;8.80;99.90
23991;DHT22;12205;50.600;4.608;2023-01-04T01:19:00;8.80;99.90
23991;DHT22;12205;50.600;4.608;2023-01-04T01:21:27;8.70;99.90
23991;DHT22;12205;50.600;4.608;2023-01-04T01:23:57;8.70;99.90
23991;DHT22;12205;50.600;4.608;2023-01-04T01:26:25;8.70;99.90
23991;DHT22;12205;50.600;4.608;2023-01-04T01:28:53;8.70;99.90
23991;DHT22;12205;50.600;4.608;2023-01-04T01:31:23;8.70;99.90
23991;DHT22;12205;50.600;4.608;2023-01-04T01:33:53;8.70;99.90
23991;DHT22;12205;50.600;4.608;2023-01-04T01:36:23;8.70;99.90
23991;DHT22;12205;50.600;4.608;2023-01-04T01:38:52;8.70;99.90
23991;DHT22;12205;50.600;4.608;2023-01-04T01:41:22;8.70;99.90
23991;DHT22;12205;50.600;4.608;2023-01-04T01:43:55;8.70;99.90
23991;DHT22;12205;50.600;4.608;2023-01-04T01:46:29;8.70;99.90
23991;DHT22;12205;50.600;4.608;2023-01-04T01:49:04;8.60;99.90
23991;DHT22;12205;50.600;4.608;2023-01-04T01:51:35;8.70;99.90
23991;DHT22;12205;50.600;4.608;2023-01-04T01:54:09;8.70;99.90
23991;DHT22;12205;50.600;4.608;2023-01-04T01:56:42;8.70;99.90
23991;DHT22;12205;50.600;4.608;2023-01-04T01:59:12;8.70;99.90
23991;DHT22;12205;50.600;4.608;2023-01-04T02:01:43;8.70;99.90
23991;DHT22;12205;50.600;4.608;2023-01-04T02:04:11;8.70;99.90
23991;DHT22;12205;50.600;4.608;2023-01-04T02:06:42;8.70;99.90
23991;DHT22;12205;50.600;4.608;2023-01-04T02:09:13;8.80;99.90
23991;DHT22;12205;50.600;4.608;2023-01-04T02:11:41;8.80;99.90
23991;DHT22;12205;50.600;4.608;2023-01-04T02:14:08;8.80;99.90
23991;DHT22;12205;50.600;4.608;2023-01-04T02:17:04;8.80;99.90
23991;DHT22;12205;50.600;4.608;2023-01-04T02:19:55;8.80;99.90
23991;DHT22;12205;50.600;4.608;2023-01-04T02:26:36;8.90;99.90
23991;DHT22;12205;50.600;4.608;2023-01-04T02:29:54;8.90;99.90
23991;DHT22;12205;50.600;4.608;2023-01-04T02:32:44;8.90;99.90
23991;DHT22;12205;50.600;4.608;2023-01-04T02:35:28;8.90;99.90
23991;DHT22;12205;50.600;4.608;2023-01-04T02:38:07;9.00;99.90
23991;DHT22;12205;50.600;4.608;2023-01-04T02:40:46;9.00;99.90
23991;DHT22;12205;50.600;4.608;2023-01-04T02:43:25;9.00;99.90
23991;DHT22;12205;50.600;4.608;2023-01-04T02:46:16;9.10;99.90
23991;DHT22;12205;50.600;4.608;2023-01-04T02:48:48;9.10;99.90
23991;DHT22;12205;50.600;4.608;2023-01-04T02:51:35;9.10;99.90
23991;DHT22;12205;50.600;4.608;2023-01-04T02:54:06;9.10;99.90
23991;DHT22;12205;50.600;4.608;2023-01-04T02:56:50;9.20;99.90
23991;DHT22;12205;50.600;4.608;2023-01-04T03:02:40;9.20;99.90
23991;DHT22;12205;50.600;4.608;2023-01-04T03:05:48;9.20;99.90
23991;DHT22;12205;50.600;4.608;2023-01-04T03:08:48;9.30;99.90
23991;DHT22;12205;50.600;4.608;2023-01-04T03:11:24;9.30;99.90
23991;DHT22;12205;50.600;4.608;2023-01-04T03:14:17;9.30;99.90
23991;DHT22;12205;50.600;4.608;2023-01-04T03:16:47;9.30;99.90
23991;DHT22;12205;50.600;4.608;2023-01-04T03:19:18;9.40;99.90
23991;DHT22;12205;50.600;4.608;2023-01-04T03:22:23;9.40;99.90
23991;DHT22;12205;50.600;4.608;2023-01-04T03:25:14;9.30;99.90
23991;DHT22;12205;50.600;4.608;2023-01-04T03:28:04;9.40;99.90
23991;DHT22;12205;50.600;4.608;2023-01-04T03:30:57;9.40;99.90
23991;DHT22;12205;50.600;4.608;2023-01-04T03:33:46;9.40;99.90
23991;DHT22;12205;50.600;4.608;2023-01-04T03:36:41;9.50;99.90
23991;DHT22;12205;50.600;4.608;2023-01-04T03:39:23;9.50;99.90
23991;DHT22;12205;50.600;4.608;2023-01-04T03:42:19;9.50;99.90
23991;DHT22;12205;50.600;4.608;2023-01-04T03:45:14;9.50;99.90
23991;DHT22;12205;50.600;4.608;2023-01-04T03:48:07;9.60;99.90
23991;DHT22;12205;50.600;4.608;2023-01-04T03:51:03;9.60;99.90
23991;DHT22;12205;50.600;4.608;2023-01-04T03:53:38;9.70;99.90
23991;DHT22;12205;50.600;4.608;2023-01-04T03:56:10;9.70;99.90
23991;DHT22;12205;50.600;4.608;2023-01-04T03:58:38;9.70;99.90
23991;DHT22;12205;50.600;4.608;2023-01-04T04:01:06;9.70;99.90
23991;DHT22;12205;50.600;4.608;2023-01-04T04:03:33;9.80;99.90
23991;DHT22;12205;50.600;4.608;2023-01-04T04:06:18;9.80;99.90
23991;DHT22;12205;50.600;4.608;2023-01-04T04:09:03;9.80;99.90
23991;DHT22;12205;50.600;4.608;2023-01-04T04:11:32;9.80;99.90
23991;DHT22;12205;50.600;4.608;2023-01-04T04:13:59;9.80;99.90
23991;DHT22;12205;50.600;4.608;2023-01-04T04:16:27;9.80;99.90
23991;DHT22;12205;50.600;4.608;2023-01-04T04:18:54;9.80;99.90
23991;DHT22;12205;50.600;4.608;2023-01-04T04:21:22;9.80;99.90
23991;DHT22;12205;50.600;4.608;2023-01-04T04:23:49;9.90;99.90
23991;DHT22;12205;50.600;4.608;2023-01-04T04:26:16;9.90;99.90
23991;DHT22;12205;50.600;4.608;2023-01-04T04:28:45;9.90;99.90
23991;DHT22;12205;50.600;4.608;2023-01-04T04:31:12;10.00;99.90
23991;DHT22;12205;50.600;4.608;2023-01-04T04:33:39;10.00;99.90
23991;DHT22;12205;50.600;4.608;2023-01-04T04:36:07;10.00;99.90
23991;DHT22;12205;50.600;4.608;2023-01-04T04:38:35;10.00;99.90
23991;DHT22;12205;50.600;4.608;2023-01-04T04:41:07;10.00;99.90
23991;DHT22;12205;50.600;4.608;2023-01-04T04:43:54;10.00;99.90
23991;DHT22;12205;50.600;4.608;2023-01-04T04:46:21;10.00;99.90
23991;DHT22;12205;50.600;4.608;2023-01-04T04:48:48;10.00;99.90
23991;DHT22;12205;50.600;4.608;2023-01-04T04:51:16;10.10;99.90
23991;DHT22;12205;50.600;4.608;2023-01-04T04:53:43;10.10;99.90
23991;DHT22;12205;50.600;4.608;2023-01-04T04:56:11;10.10;99.90
23991;DHT22;12205;50.600;4.608;2023-01-04T04:58:38;10.10;99.90
23991;DHT22;12205;50.600;4.608;2023-01-04T05:01:07;10.10;99.90
23991;DHT22;12205;50.600;4.608;2023-01-04T05:03:34;10.10;99.90
23991;DHT22;12205;50.600;4.608;2023-01-04T05:06:02;10.20;99.90
23991;DHT22;12205;50.600;4.608;2023-01-04T05:08:29;10.20;99.90
23991;DHT22;12205;50.600;4.608;2023-01-04T05:10:56;10.20;99.90
23991;DHT22;12205;50.600;4.608;2023-01-04T05:13:24;10.30;99.90
23991;DHT22;12205;50.600;4.608;2023-01-04T05:15:51;10.30;99.90
23991;DHT22;12205;50.600;4.608;2023-01-04T05:18:21;10.30;99.90
23991;DHT22;12205;50.600;4.608;2023-01-04T05:20:49;10.30;99.90
23991;DHT22;12205;50.600;4.608;2023-01-04T05:23:18;10.40;99.90
23991;DHT22;12205;50.600;4.608;2023-01-04T05:25:50;10.40;99.90
23991;DHT22;12205;50.600;4.608;2023-01-04T05:28:19;10.40;99.90
23991;DHT22;12205;50.600;4.608;2023-01-04T05:30:48;10.40;99.90
23991;DHT22;12205;50.600;4.608;2023-01-04T05:33:21;10.30;99.90
23991;DHT22;12205;50.600;4.608;2023-01-04T05:35:51;10.30;99.90
23991;DHT22;12205;50.600;4.608;2023-01-04T05:38:20;10.30;99.90
23991;DHT22;12205;50.600;4.608;2023-01-04T05:40:48;10.30;99.90
23991;DHT22;12205;50.600;4.608;2023-01-04T05:43:16;10.30;99.90
23991;DHT22;12205;50.600;4.608;2023-01-04T05:45:47;10.30;99.90
23991;DHT22;12205;50.600;4.608;2023-01-04T05:48:15;10.30;99.90
23991;DHT22;12205;50.600;4.608;2023-01-04T05:50:44;10.30;99.90
23991;DHT22;12205;50.600;4.608;2023-01-04T05:53:13;10.40;99.90
23991;DHT22;12205;50.600;4.608;2023-01-04T05:55:42;10.40;99.90
23991;DHT22;12205;50.600;4.608;2023-01-04T05:58:09;10.40;99.90
23991;DHT22;12205;50.600;4.608;2023-01-04T06:00:37;10.40;99.90
23991;DHT22;12205;50.600;4.608;2023-01-04T06:03:04;10.50;99.90
23991;DHT22;12205;50.600;4.608;2023-01-04T06:05:31;10.50;99.90
23991;DHT22;12205;50.600;4.608;2023-01-04T06:08:00;10.50;99.90
23991;DHT22;12205;50.600;4.608;2023-01-04T06:10:27;10.40;99.90
23991;DHT22;12205;50.600;4.608;2023-01-04T06:12:54;10.40;99.90
23991;DHT22;12205;50.600;4.608;2023-01-04T06:15:21;10.40;99.90
23991;DHT22;12205;50.600;4.608;2023-01-04T06:17:48;10.40;99.90
23991;DHT22;12205;50.600;4.608;2023-01-04T06:20:15;10.40;99.90
23991;DHT22;12205;50.600;4.608;2023-01-04T06:22:43;10.40;99.90
23991;DHT22;12205;50.600;4.608;2023-01-04T06:25:11;10.40;99.90
23991;DHT22;12205;50.600;4.608;2023-01-04T06:27:39;10.40;99.90
23991;DHT22;12205;50.600;4.608;2023-01-04T06:30:07;10.40;99.90
23991;DHT22;12205;50.600;4.608;2023-01-04T06:32:35;10.40;99.90
23991;DHT22;12205;50.600;4.608;2023-01-04T06:35:03;10.40;99.90
23991;DHT22;12205;50.600;4.608;2023-01-04T06:37:31;10.50;99.90
23991;DHT22;12205;50.600;4.608;2023-01-04T06:40:00;10.50;99.90
23991;DHT22;12205;50.600;4.608;2023-01-04T06:42:29;10.60;99.90
23991;DHT22;12205;50.600;4.608;2023-01-04T06:45:11;10.60;99.90
23991;DHT22;12205;50.600;4.608;2023-01-04T06:47:39;10.60;99.90
23991;DHT22;12205;50.600;4.608;2023-01-04T06:50:07;10.60;99.90
23991;DHT22;12205;50.600;4.608;2023-01-04T06:52:35;10.70;99.90
23991;DHT22;12205;50.600;4.608;2023-01-04T06:55:03;10.70;99.90
23991;DHT22;12205;50.600;4.608;2023-01-04T06:57:32;10.70;99.90
23991;DHT22;12205;50.600;4.608;2023-01-04T06:59:59;10.80;99.90
23991;DHT22;12205;50.600;4.608;2023-01-04T07:02:26;10.80;99.90
23991;DHT22;12205;50.600;4.608;2023-01-04T07:04:53;10.80;99.90
23991;DHT22;12205;50.600;4.608;2023-01-04T07:07:21;10.80;99.90
23991;DHT22;12205;50.600;4.608;2023-01-04T07:09:48;10.80;99.90
23991;DHT22;12205;50.600;4.608;2023-01-04T07:12:15;10.90;99.90
23991;DHT22;12205;50.600;4.608;2023-01-04T07:14:44;10.90;99.90
23991;DHT22;12205;50.600;4.608;2023-01-04T07:17:11;10.90;99.90
23991;DHT22;12205;50.600;4.608;2023-01-04T07:19:38;10.90;99.90
23991;DHT22;12205;50.600;4.608;2023-01-04T07:22:05;10.90;99.90
23991;DHT22;12205;50.600;4.608;2023-01-04T07:24:33;10.80;99.90
23991;DHT22;12205;50.600;4.608;2023-01-04T07:27:00;10.80;99.90
23991;DHT22;12205;50.600;4.608;2023-01-04T07:29:27;10.80;99.90
23991;DHT22;12205;50.600;4.608;2023-01-04T07:31:56;10.80;99.90
23991;DHT22;12205;50.600;4.608;2023-01-04T07:34:24;10.90;99.90
23991;DHT22;12205;50.600;4.608;2023-01-04T07:36:53;10.90;99.90
23991;DHT22;12205;50.600;4.608;2023-01-04T07:39:21;10.90;99.90
23991;DHT22;12205;50.600;4.608;2023-01-04T07:41:49;10.90;99.90
23991;DHT22;12205;50.600;4.608;2023-01-04T07:44:19;11.00;99.90
23991;DHT22;12205;50.600;4.608;2023-01-04T07:46:47;11.00;99.90
23991;DHT22;12205;50.600;4.608;2023-01-04T07:49:16;11.00;99.90
23991;DHT22;12205;50.600;4.608;2023-01-04T07:51:44;11.00;99.90
23991;DHT22;12205;50.600;4.608;2023-01-04T07:54:12;11.00;99.90
23991;DHT22;12205;50.600;4.608;2023-01-04T07:56:40;11.00;99.90
23991;DHT22;12205;50.600;4.608;2023-01-04T07:59:09;11.00;99.90
23991;DHT22;12205;50.600;4.608;2023-01-04T08:01:38;11.10;99.90
23991;DHT22;12205;50.600;4.608;2023-01-04T08:04:06;11.10;99.90
23991;DHT22;12205;50.600;4.608;2023-01-04T08:06:36;11.10;99.90
23991;DHT22;12205;50.600;4.608;2023-01-04T08:09:05;11.20;99.90
23991;DHT22;12205;50.600;4.608;2023-01-04T08:11:34;11.20;99.90
23991;DHT22;12205;50.600;4.608;2023-01-04T08:14:01;11.20;99.90
23991;DHT22;12205;50.600;4.608;2023-01-04T08:16:31;11.20;99.90
23991;DHT22;12205;50.600;4.608;2023-01-04T08:19:00;11.20;99.90
23991;DHT22;12205;50.600;4.608;2023-01-04T08:21:31;11.20;99.90
23991;DHT22;12205;50.600;4.608;2023-01-04T08:24:01;11.20;99.90
23991;DHT22;12205;50.600;4.608;2023-01-04T08:26:29;11.10;99.90
23991;DHT22;12205;50.600;4.608;2023-01-04T08:28:57;11.00;99.90
23991;DHT22;12205;50.600;4.608;2023-01-04T08:31:26;10.90;99.90
23991;DHT22;12205;50.600;4.608;2023-01-04T08:33:55;10.90;99.90
23991;DHT22;12205;50.600;4.608;2023-01-04T08:36:25;10.90;99.90
23991;DHT22;12205;50.600;4.608;2023-01-04T08:38:56;10.90;99.90
23991;DHT22;12205;50.600;4.608;2023-01-04T08:41:25;10.90;99.90
23991;DHT22;12205;50.600;4.608;2023-01-04T08:43:53;11.00;99.90
23991;DHT22;12205;50.600;4.608;2023-01-04T08:46:20;11.00;99.90
23991;DHT22;12205;50.600;4.608;2023-01-04T08:48:47;11.00;99.90
23991;DHT22;12205;50.600;4.608;2023-01-04T08:51:15;11.00;99.90
23991;DHT22;12205;50.600;4.608;2023-01-04T08:53:43;11.00;99.90
23991;DHT22;12205;50.600;4.608;2023-01-04T08:56:10;11.10;99.90
23991;DHT22;12205;50.600;4.608;2023-01-04T08:58:39;11.10;99.90
23991;DHT22;12205;50.600;4.608;2023-01-04T09:01:08;11.10;99.90
23991;DHT22;12205;50.600;4.608;2023-01-04T09:03:37;11.20;99.90
23991;DHT22;12205;50.600;4.608;2023-01-04T09:06:06;11.20;99.90
23991;DHT22;12205;50.600;4.608;2023-01-04T09:08:36;11.30;99.90
23991;DHT22;12205;50.600;4.608;2023-01-04T09:11:04;11.30;99.90
23991;DHT22;12205;50.600;4.608;2023-01-04T09:13:32;11.40;99.90
23991;DHT22;12205;50.600;4.608;2023-01-04T09:16:02;11.40;99.90
23991;DHT22;12205;50.600;4.608;2023-01-04T09:18:30;11.50;99.90
23991;DHT22;12205;50.600;4.608;2023-01-04T09:20:58;11.50;99.90
23991;DHT22;12205;50.600;4.608;2023-01-04T09:23:26;11.50;99.90
23991;DHT22;12205;50.600;4.608;2023-01-04T09:25:54;11.50;99.90
23991;DHT22;12205;50.600;4.608;2023-01-04T09:28:22;11.50;99.90
23991;DHT22;12205;50.600;4.608;2023-01-04T09:30:49;11.50;99.90
23991;DHT22;12205;50.600;4.608;2023-01-04T09:33:17;11.60;99.90
23991;DHT22;12205;50.600;4.608;2023-01-04T09:35:44;11.60;99.90
23991;DHT22;12205;50.600;4.608;2023-01-04T09:38:12;11.60;99.90
23991;DHT22;12205;50.600;4.608;2023-01-04T09:40:49;11.60;99.90
23991;DHT22;12205;50.600;4.608;2023-01-04T09:43:22;11.50;99.90
23991;DHT22;12205;50.600;4.608;2023-01-04T09:45:52;11.50;99.90
23991;DHT22;12205;50.600;4.608;2023-01-04T09:48:28;11.50;99.90
23991;DHT22;12205;50.600;4.608;2023-01-04T09:51:00;11.50;99.90
23991;DHT22;12205;50.600;4.608;2023-01-04T09:53:34;11.50;99.90
23991;DHT22;12205;50.600;4.608;2023-01-04T09:56:09;11.50;99.90
23991;DHT22;12205;50.600;4.608;2023-01-04T09:58:42;11.50;99.90
23991;DHT22;12205;50.600;4.608;2023-01-04T10:01:13;11.50;99.90
23991;DHT22;12205;50.600;4.608;2023-01-04T10:03:52;11.50;99.90
23991;DHT22;12205;50.600;4.608;2023-01-04T10:06:24;11.40;99.90
23991;DHT22;12205;50.600;4.608;2023-01-04T10:08:51;11.50;99.90
23991;DHT22;12205;50.600;4.608;2023-01-04T10:11:34;11.50;99.90
23991;DHT22;12205;50.600;4.608;2023-01-04T10:14:27;11.50;99.90
23991;DHT22;12205;50.600;4.608;2023-01-04T10:17:09;11.50;99.90
23991;DHT22;12205;50.600;4.608;2023-01-04T10:20:08;11.50;99.90
23991;DHT22;12205;50.600;4.608;2023-01-04T10:22:51;11.50;99.90
23991;DHT22;12205;50.600;4.608;2023-01-04T10:25:30;11.50;99.90
23991;DHT22;12205;50.600;4.608;2023-01-04T10:28:15;11.40;99.90
23991;DHT22;12205;50.600;4.608;2023-01-04T10:31:01;11.40;99.90
23991;DHT22;12205;50.600;4.608;2023-01-04T10:33:38;11.40;99.90
23991;DHT22;12205;50.600;4.608;2023-01-04T10:36:17;11.40;99.90
23991;DHT22;12205;50.600;4.608;2023-01-04T10:38:52;11.40;99.90
23991;DHT22;12205;50.600;4.608;2023-01-04T10:41:22;11.40;99.90
23991;DHT22;12205;50.600;4.608;2023-01-04T10:44:01;11.40;99.90
23991;DHT22;12205;50.600;4.608;2023-01-04T10:46:39;11.40;99.90
23991;DHT22;12205;50.600;4.608;2023-01-04T10:49:15;11.40;99.90
23991;DHT22;12205;50.600;4.608;2023-01-04T10:51:51;11.50;99.90
23991;DHT22;12205;50.600;4.608;2023-01-04T10:54:27;11.50;99.90
23991;DHT22;12205;50.600;4.608;2023-01-04T10:57:05;11.50;99.90
23991;DHT22;12205;50.600;4.608;2023-01-04T10:59:41;11.60;99.90
23991;DHT22;12205;50.600;4.608;2023-01-04T11:02:18;11.60;99.90
23991;DHT22;12205;50.600;4.608;2023-01-04T11:04:55;11.60;99.90
23991;DHT22;12205;50.600;4.608;2023-01-04T11:07:33;11.60;99.90
23991;DHT22;12205;50.600;4.608;2023-01-04T11:10:08;11.50;99.90
23991;DHT22;12205;50.600;4.608;2023-01-04T11:12:40;11.50;99.90
23991;DHT22;12205;50.600;4.608;2023-01-04T11:15:08;11.50;99.90
23991;DHT22;12205;50.600;4.608;2023-01-04T11:17:36;11.50;99.90
23991;DHT22;12205;50.600;4.608;2023-01-04T11:20:05;11.50;99.90
23991;DHT22;12205;50.600;4.608;2023-01-04T11:22:38;11.50;99.90
23991;DHT22;12205;50.600;4.608;2023-01-04T11:25:13;11.50;99.90
23991;DHT22;12205;50.600;4.608;2023-01-04T11:27:47;11.50;99.90
23991;DHT22;12205;50.600;4.608;2023-01-04T11:30:21;11.50;99.90
23991;DHT22;12205;50.600;4.608;2023-01-04T11:32:51;11.50;99.90
23991;DHT22;12205;50.600;4.608;2023-01-04T11:35:37;11.50;99.90
23991;DHT22;12205;50.600;4.608;2023-01-04T11:38:12;11.50;99.90
23991;DHT22;12205;50.600;4.608;2023-01-04T11:40:41;11.50;99.90
23991;DHT22;12205;50.600;4.608;2023-01-04T11:43:22;11.60;99.90
23991;DHT22;12205;50.600;4.608;2023-01-04T11:46:00;11.60;99.90
23991;DHT22;12205;50.600;4.608;2023-01-04T11:48:39;11.60;99.90
23991;DHT22;12205;50.600;4.608;2023-01-04T11:51:31;11.60;99.90
23991;DHT22;12205;50.600;4.608;2023-01-04T11:54:05;11.60;99.90
23991;DHT22;12205;50.600;4.608;2023-01-04T11:57:00;11.60;99.90
23991;DHT22;12205;50.600;4.608;2023-01-04T11:59:31;11.60;99.90
23991;DHT22;12205;50.600;4.608;2023-01-04T12:02:19;11.60;99.90
23991;DHT22;12205;50.600;4.608;2023-01-04T12:04:48;11.60;99.90
23991;DHT22;12205;50.600;4.608;2023-01-04T12:07:28;11.70;99.90
23991;DHT22;12205;50.600;4.608;2023-01-04T12:10:00;11.70;99.90
23991;DHT22;12205;50.600;4.608;2023-01-04T12:12:32;11.70;99.90
23991;DHT22;12205;50.600;4.608;2023-01-04T12:15:02;11.60;99.90
23991;DHT22;12205;50.600;4.608;2023-01-04T12:17:40;11.70;99.90
23991;DHT22;12205;50.600;4.608;2023-01-04T12:20:15;11.70;99.90
23991;DHT22;12205;50.600;4.608;2023-01-04T12:22:45;11.70;99.90
23991;DHT22;12205;50.600;4.608;2023-01-04T12:25:32;11.70;99.90
23991;DHT22;12205;50.600;4.608;2023-01-04T12:28:04;11.70;99.90
23991;DHT22;12205;50.600;4.608;2023-01-04T12:30:37;11.70;99.90
23991;DHT22;12205;50.600;4.608;2023-01-04T12:33:37;11.70;99.90
23991;DHT22;12205;50.600;4.608;2023-01-04T12:36:07;11.70;99.90
23991;DHT22;12205;50.600;4.608;2023-01-04T12:39:02;11.80;99.90
23991;DHT22;12205;50.600;4.608;2023-01-04T12:45:14;11.80;99.90
23991;DHT22;12205;50.600;4.608;2023-01-04T12:47:47;11.80;99.90
23991;DHT22;12205;50.600;4.608;2023-01-04T12:53:49;11.80;99.90
23991;DHT22;12205;50.600;4.608;2023-01-04T12:56:20;11.80;99.90
23991;DHT22;12205;50.600;4.608;2023-01-04T12:59:08;11.80;99.90
23991;DHT22;12205;50.600;4.608;2023-01-04T13:01:37;11.90;99.90
23991;DHT22;12205;50.600;4.608;2023-01-04T13:04:26;11.90;99.90
23991;DHT22;12205;50.600;4.608;2023-01-04T13:07:01;11.90;99.90
23991;DHT22;12205;50.600;4.608;2023-01-04T13:09:49;12.00;99.90
23991;DHT22;12205;50.600;4.608;2023-01-04T13:12:44;12.00;99.90
23991;DHT22;12205;50.600;4.608;2023-01-04T13:15:23;12.00;99.90
23991;DHT22;12205;50.600;4.608;2023-01-04T13:18:00;12.00;99.90
23991;DHT22;12205;50.600;4.608;2023-01-04T13:20:28;12.00;99.90
23991;DHT22;12205;50.600;4.608;2023-01-04T13:22:57;12.10;99.90
23991;DHT22;12205;50.600;4.608;2023-01-04T13:25:25;12.10;99.90
23991;DHT22;12205;50.600;4.608;2023-01-04T13:27:57;12.10;99.90
23991;DHT22;12205;50.600;4.608;2023-01-04T13:30:33;12.10;99.90
23991;DHT22;12205;50.600;4.608;2023-01-04T13:33:09;12.10;99.90
23991;DHT22;12205;50.600;4.608;2023-01-04T13:35:41;12.10;99.90
23991;DHT22;12205;50.600;4.608;2023-01-04T13:38:12;12.10;99.90
23991;DHT22;12205;50.600;4.608;2023-01-04T13:40:44;12.10;99.90
23991;DHT22;12205;50.600;4.608;2023-01-04T13:43:30;12.10;99.90
23991;DHT22;12205;50.600;4.608;2023-01-04T13:46:21;12.20;99.90
23991;DHT22;12205;50.600;4.608;2023-01-04T13:48:53;12.20;99.90
23991;DHT22;12205;50.600;4.608;2023-01-04T13:51:26;12.20;99.90
23991;DHT22;12205;50.600;4.608;2023-01-04T13:53:58;12.20;99.90
23991;DHT22;12205;50.600;4.608;2023-01-04T13:56:28;12.30;99.90
23991;DHT22;12205;50.600;4.608;2023-01-04T13:58:57;12.20;99.90
23991;DHT22;12205;50.600;4.608;2023-01-04T14:01:29;12.20;99.90
23991;DHT22;12205;50.600;4.608;2023-01-04T14:03:59;12.30;99.90
23991;DHT22;12205;50.600;4.608;2023-01-04T14:06:29;12.30;99.90
23991;DHT22;12205;50.600;4.608;2023-01-04T14:09:02;12.30;99.90
23991;DHT22;12205;50.600;4.608;2023-01-04T14:11:34;12.30;99.90
23991;DHT22;12205;50.600;4.608;2023-01-04T14:14:39;12.30;99.90
23991;DHT22;12205;50.600;4.608;2023-01-04T14:17:21;12.30;99.90
23991;DHT22;12205;50.600;4.608;2023-01-04T14:19:53;12.30;99.90
23991;DHT22;12205;50.600;4.608;2023-01-04T14:22:49;12.30;99.90
23991;DHT22;12205;50.600;4.608;2023-01-04T14:25:45;12.30;99.90
23991;DHT22;12205;50.600;4.608;2023-01-04T14:28:39;12.30;99.90
23991;DHT22;12205;50.600;4.608;2023-01-04T14:31:32;12.30;99.90
23991;DHT22;12205;50.600;4.608;2023-01-04T14:34:11;12.30;99.90
23991;DHT22;12205;50.600;4.608;2023-01-04T14:36:42;12.30;99.90
23991;DHT22;12205;50.600;4.608;2023-01-04T14:39:32;12.30;99.90
23991;DHT22;12205;50.600;4.608;2023-01-04T14:42:00;12.30;99.90
23991;DHT22;12205;50.600;4.608;2023-01-04T14:44:30;12.30;99.90
23991;DHT22;12205;50.600;4.608;2023-01-04T14:47:01;12.30;99.90
23991;DHT22;12205;50.600;4.608;2023-01-04T14:49:32;12.30;99.90
23991;DHT22;12205;50.600;4.608;2023-01-04T14:52:00;12.30;99.90
23991;DHT22;12205;50.600;4.608;2023-01-04T14:54:29;12.30;99.90
23991;DHT22;12205;50.600;4.608;2023-01-04T14:56:59;12.30;99.90
23991;DHT22;12205;50.600;4.608;2023-01-04T14:59:27;12.30;99.90
23991;DHT22;12205;50.600;4.608;2023-01-04T15:01:55;12.30;99.90
23991;DHT22;12205;50.600;4.608;2023-01-04T15:04:23;12.30;99.90
23991;DHT22;12205;50.600;4.608;2023-01-04T15:06:53;12.30;99.90
23991;DHT22;12205;50.600;4.608;2023-01-04T15:09:22;12.30;99.90
23991;DHT22;12205;50.600;4.608;2023-01-04T15:11:49;12.20;99.90
23991;DHT22;12205;50.600;4.608;2023-01-04T15:14:16;12.20;99.90
23991;DHT22;12205;50.600;4.608;2023-01-04T15:16:44;12.20;99.90
23991;DHT22;12205;50.600;4.608;2023-01-04T15:19:12;12.10;99.90
23991;DHT22;12205;50.600;4.608;2023-01-04T15:21:40;12.10;99.90
23991;DHT22;12205;50.600;4.608;2023-01-04T15:24:09;12.10;99.90
23991;DHT22;12205;50.600;4.608;2023-01-04T15:26:37;12.00;99.90
23991;DHT22;12205;50.600;4.608;2023-01-04T15:29:05;12.00;99.90
23991;DHT22;12205;50.600;4.608;2023-01-04T15:31:33;12.00;99.90
23991;DHT22;12205;50.600;4.608;2023-01-04T15:34:02;11.90;99.90
23991;DHT22;12205;50.600;4.608;2023-01-04T15:36:29;11.90;99.90
23991;DHT22;12205;50.600;4.608;2023-01-04T15:38:56;11.90;99.90
23991;DHT22;12205;50.600;4.608;2023-01-04T15:41:25;11.90;99.90
23991;DHT22;12205;50.600;4.608;2023-01-04T15:44:11;11.90;99.90
23991;DHT22;12205;50.600;4.608;2023-01-04T15:46:38;11.90;99.90
23991;DHT22;12205;50.600;4.608;2023-01-04T15:49:06;11.80;99.90
23991;DHT22;12205;50.600;4.608;2023-01-04T15:51:33;11.80;99.90
23991;DHT22;12205;50.600;4.608;2023-01-04T15:54:00;11.80;99.90
23991;DHT22;12205;50.600;4.608;2023-01-04T15:56:29;11.80;99.90
23991;DHT22;12205;50.600;4.608;2023-01-04T15:58:56;11.80;99.90
23991;DHT22;12205;50.600;4.608;2023-01-04T16:01:23;11.80;99.90
23991;DHT22;12205;50.600;4.608;2023-01-04T16:03:50;11.80;99.90
23991;DHT22;12205;50.600;4.608;2023-01-04T16:06:18;11.80;99.90
23991;DHT22;12205;50.600;4.608;2023-01-04T16:08:45;11.90;99.90
23991;DHT22;12205;50.600;4.608;2023-01-04T16:11:16;11.90;99.90
23991;DHT22;12205;50.600;4.608;2023-01-04T16:13:48;11.90;99.90
23991;DHT22;12205;50.600;4.608;2023-01-04T16:16:17;11.90;99.90
23991;DHT22;12205;50.600;4.608;2023-01-04T16:18:48;11.90;99.90
23991;DHT22;12205;50.600;4.608;2023-01-04T16:21:20;11.90;99.90
23991;DHT22;12205;50.600;4.608;2023-01-04T16:23:49;11.90;99.90
23991;DHT22;12205;50.600;4.608;2023-01-04T16:26:17;11.90;99.90